sensor_id;sensor_type;location;lat;lon;timestamp;P1;durP1;ratioP1;P2;durP2;ratioP2
69542;SDS011;56762;49.494;11.768;2022-12-18T00:00:05;43.42;;;12.27;;
69542;SDS011;56762;49.494;11.768;2022-12-18T00:02:34;36.72;;;12.02;;
69542;SDS011;56762;49.494;11.768;2022-12-18T00:05:02;41.22;;;13.25;;
69542;SDS011;56762;49.494;11.768;2022-12-18T00:07:30;33.60;;;11.70;;
69542;SDS011;56762;49.494;11.768;2022-12-18T00:09:58;36.28;;;12.20;;
69542;SDS011;56762;49.494;11.768;2022-12-18T00:12:26;38.50;;;12.55;;
69542;SDS011;56762;49.494;11.768;2022-12-18T00:14:55;46.00;;;14.50;;
69542;SDS011;56762;49.494;11.768;2022-12-18T00:17:24;41.78;;;12.27;;
69542;SDS011;56762;49.494;11.768;2022-12-18T00:19:52;35.10;;;12.83;;
69542;SDS011;56762;49.494;11.768;2022-12-18T00:22:20;40.95;;;12.90;;
69542;SDS011;56762;49.494;11.768;2022-12-18T00:24:49;46.38;;;14.27;;
69542;SDS011;56762;49.494;11.768;2022-12-18T00:27:17;42.90;;;13.68;;
69542;SDS011;56762;49.494;11.768;2022-12-18T00:29:47;48.20;;;13.55;;
69542;SDS011;56762;49.494;11.768;2022-12-18T00:32:16;45.17;;;13.43;;
69542;SDS011;56762;49.494;11.768;2022-12-18T00:34:45;47.03;;;14.98;;
69542;SDS011;56762;49.494;11.768;2022-12-18T00:37:13;47.15;;;13.07;;
69542;SDS011;56762;49.494;11.768;2022-12-18T00:39:47;47.08;;;13.63;;
69542;SDS011;56762;49.494;11.768;2022-12-18T00:42:15;43.38;;;13.77;;
69542;SDS011;56762;49.494;11.768;2022-12-18T00:45:01;51.07;;;14.37;;
69542;SDS011;56762;49.494;11.768;2022-12-18T00:47:37;48.40;;;13.82;;
69542;SDS011;56762;49.494;11.768;2022-12-18T00:50:08;45.72;;;14.15;;
69542;SDS011;56762;49.494;11.768;2022-12-18T00:52:37;50.95;;;12.60;;
69542;SDS011;56762;49.494;11.768;2022-12-18T00:55:07;51.30;;;14.13;;
69542;SDS011;56762;49.494;11.768;2022-12-18T00:57:37;60.00;;;16.80;;
69542;SDS011;56762;49.494;11.768;2022-12-18T01:00:06;55.30;;;14.20;;
69542;SDS011;56762;49.494;11.768;2022-12-18T01:02:36;50.65;;;13.95;;
69542;SDS011;56762;49.494;11.768;2022-12-18T01:05:05;42.92;;;12.75;;
69542;SDS011;56762;49.494;11.768;2022-12-18T01:07:35;44.15;;;11.45;;
69542;SDS011;56762;49.494;11.768;2022-12-18T01:10:04;40.07;;;11.73;;
69542;SDS011;56762;49.494;11.768;2022-12-18T01:12:32;42.17;;;11.73;;
69542;SDS011;56762;49.494;11.768;2022-12-18T01:15:01;40.22;;;12.07;;
69542;SDS011;56762;49.494;11.768;2022-12-18T01:17:29;40.90;;;11.82;;
69542;SDS011;56762;49.494;11.768;2022-12-18T01:19:57;36.80;;;11.13;;
69542;SDS011;56762;49.494;11.768;2022-12-18T01:22:27;41.17;;;12.10;;
69542;SDS011;56762;49.494;11.768;2022-12-18T01:24:55;33.08;;;10.77;;
69542;SDS011;56762;49.494;11.768;2022-12-18T01:27:23;36.13;;;12.10;;
69542;SDS011;56762;49.494;11.768;2022-12-18T01:29:52;36.97;;;10.27;;
69542;SDS011;56762;49.494;11.768;2022-12-18T01:32:20;35.58;;;11.63;;
69542;SDS011;56762;49.494;11.768;2022-12-18T01:34:49;39.60;;;10.97;;
69542;SDS011;56762;49.494;11.768;2022-12-18T01:37:17;39.80;;;10.85;;
69542;SDS011;56762;49.494;11.768;2022-12-18T01:39:47;31.95;;;11.30;;
69542;SDS011;56762;49.494;11.768;2022-12-18T01:42:16;31.67;;;10.25;;
69542;SDS011;56762;49.494;11.768;2022-12-18T01:47:49;36.30;;;10.80;;
69542;SDS011;56762;49.494;11.768;2022-12-18T01:50:21;31.95;;;9.68;;
69542;SDS011;56762;49.494;11.768;2022-12-18T01:52:54;39.20;;;10.88;;
69542;SDS011;56762;49.494;11.768;2022-12-18T01:55:28;37.00;;;10.77;;
69542;SDS011;56762;49.494;11.768;2022-12-18T01:57:59;27.40;;;9.27;;
69542;SDS011;56762;49.494;11.768;2022-12-18T02:00:27;28.57;;;10.83;;
69542;SDS011;56762;49.494;11.768;2022-12-18T02:02:55;31.48;;;10.15;;
69542;SDS011;56762;49.494;11.768;2022-12-18T02:05:26;28.88;;;9.55;;
69542;SDS011;56762;49.494;11.768;2022-12-18T02:08:03;31.02;;;9.32;;
69542;SDS011;56762;49.494;11.768;2022-12-18T02:10:41;29.25;;;9.88;;
69542;SDS011;56762;49.494;11.768;2022-12-18T02:13:18;30.67;;;10.37;;
69542;SDS011;56762;49.494;11.768;2022-12-18T02:15:51;34.53;;;11.23;;
69542;SDS011;56762;49.494;11.768;2022-12-18T02:18:26;37.83;;;11.15;;
69542;SDS011;56762;49.494;11.768;2022-12-18T02:21:00;30.60;;;10.05;;
69542;SDS011;56762;49.494;11.768;2022-12-18T02:23:42;33.75;;;10.27;;
69542;SDS011;56762;49.494;11.768;2022-12-18T02:26:20;33.40;;;10.03;;
69542;SDS011;56762;49.494;11.768;2022-12-18T02:28:53;30.63;;;10.60;;
69542;SDS011;56762;49.494;11.768;2022-12-18T02:31:25;32.47;;;10.68;;
69542;SDS011;56762;49.494;11.768;2022-12-18T02:33:58;35.05;;;12.13;;
69542;SDS011;56762;49.494;11.768;2022-12-18T02:36:31;28.83;;;9.13;;
69542;SDS011;56762;49.494;11.768;2022-12-18T02:39:01;26.73;;;9.30;;
69542;SDS011;56762;49.494;11.768;2022-12-18T02:41:31;27.23;;;9.25;;
69542;SDS011;56762;49.494;11.768;2022-12-18T02:44:00;29.52;;;9.68;;
69542;SDS011;56762;49.494;11.768;2022-12-18T02:46:35;26.73;;;9.10;;
69542;SDS011;56762;49.494;11.768;2022-12-18T02:49:06;31.75;;;9.60;;
69542;SDS011;56762;49.494;11.768;2022-12-18T02:51:47;33.57;;;9.17;;
69542;SDS011;56762;49.494;11.768;2022-12-18T02:54:21;22.52;;;8.70;;
69542;SDS011;56762;49.494;11.768;2022-12-18T02:56:57;33.03;;;9.75;;
69542;SDS011;56762;49.494;11.768;2022-12-18T02:59:32;29.23;;;9.32;;
69542;SDS011;56762;49.494;11.768;2022-12-18T03:02:08;32.55;;;9.50;;
69542;SDS011;56762;49.494;11.768;2022-12-18T03:04:49;29.27;;;9.80;;
69542;SDS011;56762;49.494;11.768;2022-12-18T03:07:26;33.95;;;9.32;;
69542;SDS011;56762;49.494;11.768;2022-12-18T03:10:02;28.30;;;9.05;;
69542;SDS011;56762;49.494;11.768;2022-12-18T03:12:34;34.67;;;9.60;;
69542;SDS011;56762;49.494;11.768;2022-12-18T03:15:06;30.17;;;9.57;;
69542;SDS011;56762;49.494;11.768;2022-12-18T03:17:44;29.77;;;9.37;;
69542;SDS011;56762;49.494;11.768;2022-12-18T03:20:17;27.40;;;9.52;;
69542;SDS011;56762;49.494;11.768;2022-12-18T03:22:51;29.67;;;8.82;;
69542;SDS011;56762;49.494;11.768;2022-12-18T03:25:25;28.70;;;9.32;;
69542;SDS011;56762;49.494;11.768;2022-12-18T03:27:56;26.35;;;9.50;;
69542;SDS011;56762;49.494;11.768;2022-12-18T03:30:28;26.50;;;9.17;;
69542;SDS011;56762;49.494;11.768;2022-12-18T03:33:01;27.67;;;9.23;;
69542;SDS011;56762;49.494;11.768;2022-12-18T03:35:39;29.27;;;9.02;;
69542;SDS011;56762;49.494;11.768;2022-12-18T03:38:10;27.42;;;9.23;;
69542;SDS011;56762;49.494;11.768;2022-12-18T03:40:42;26.42;;;8.77;;
69542;SDS011;56762;49.494;11.768;2022-12-18T03:43:20;27.83;;;8.80;;
69542;SDS011;56762;49.494;11.768;2022-12-18T03:45:59;32.38;;;9.15;;
69542;SDS011;56762;49.494;11.768;2022-12-18T03:48:31;32.22;;;8.95;;
69542;SDS011;56762;49.494;11.768;2022-12-18T03:51:05;33.55;;;9.07;;
69542;SDS011;56762;49.494;11.768;2022-12-18T03:53:39;31.55;;;9.45;;
69542;SDS011;56762;49.494;11.768;2022-12-18T03:56:10;30.97;;;8.83;;
69542;SDS011;56762;49.494;11.768;2022-12-18T03:58:43;32.83;;;9.93;;
69542;SDS011;56762;49.494;11.768;2022-12-18T04:01:13;34.65;;;11.20;;
69542;SDS011;56762;49.494;11.768;2022-12-18T04:03:44;34.55;;;9.35;;
69542;SDS011;56762;49.494;11.768;2022-12-18T04:06:15;29.90;;;9.75;;
69542;SDS011;56762;49.494;11.768;2022-12-18T04:08:44;30.77;;;11.03;;
69542;SDS011;56762;49.494;11.768;2022-12-18T04:11:13;31.75;;;10.45;;
69542;SDS011;56762;49.494;11.768;2022-12-18T04:13:42;43.95;;;14.25;;
69542;SDS011;56762;49.494;11.768;2022-12-18T04:16:11;50.35;;;13.88;;
69542;SDS011;56762;49.494;11.768;2022-12-18T04:18:39;34.35;;;11.02;;
69542;SDS011;56762;49.494;11.768;2022-12-18T04:21:07;53.20;;;13.43;;
69542;SDS011;56762;49.494;11.768;2022-12-18T04:23:35;40.22;;;12.93;;
69542;SDS011;56762;49.494;11.768;2022-12-18T04:26:04;50.13;;;16.10;;
69542;SDS011;56762;49.494;11.768;2022-12-18T04:28:33;37.30;;;11.02;;
69542;SDS011;56762;49.494;11.768;2022-12-18T04:31:02;34.20;;;10.90;;
69542;SDS011;56762;49.494;11.768;2022-12-18T04:33:31;30.90;;;10.70;;
69542;SDS011;56762;49.494;11.768;2022-12-18T04:35:59;32.00;;;10.52;;
69542;SDS011;56762;49.494;11.768;2022-12-18T04:38:26;30.48;;;10.13;;
69542;SDS011;56762;49.494;11.768;2022-12-18T04:40:54;31.35;;;10.60;;
69542;SDS011;56762;49.494;11.768;2022-12-18T04:43:22;32.25;;;10.13;;
69542;SDS011;56762;49.494;11.768;2022-12-18T04:45:50;32.33;;;9.80;;
69542;SDS011;56762;49.494;11.768;2022-12-18T04:48:21;31.60;;;9.80;;
69542;SDS011;56762;49.494;11.768;2022-12-18T04:50:49;32.42;;;10.70;;
69542;SDS011;56762;49.494;11.768;2022-12-18T04:53:17;36.13;;;11.55;;
69542;SDS011;56762;49.494;11.768;2022-12-18T04:55:46;33.60;;;10.18;;
69542;SDS011;56762;49.494;11.768;2022-12-18T04:58:15;27.27;;;9.03;;
69542;SDS011;56762;49.494;11.768;2022-12-18T05:00:43;35.33;;;11.20;;
69542;SDS011;56762;49.494;11.768;2022-12-18T05:03:11;32.95;;;9.98;;
69542;SDS011;56762;49.494;11.768;2022-12-18T05:05:40;30.67;;;9.63;;
69542;SDS011;56762;49.494;11.768;2022-12-18T05:08:08;29.77;;;9.63;;
69542;SDS011;56762;49.494;11.768;2022-12-18T05:10:36;27.97;;;9.70;;
69542;SDS011;56762;49.494;11.768;2022-12-18T05:13:04;34.80;;;11.55;;
69542;SDS011;56762;49.494;11.768;2022-12-18T05:15:32;32.35;;;9.75;;
69542;SDS011;56762;49.494;11.768;2022-12-18T05:18:01;31.83;;;9.20;;
69542;SDS011;56762;49.494;11.768;2022-12-18T05:20:30;33.00;;;10.35;;
69542;SDS011;56762;49.494;11.768;2022-12-18T05:23:00;29.00;;;10.40;;
69542;SDS011;56762;49.494;11.768;2022-12-18T05:25:28;27.17;;;9.00;;
69542;SDS011;56762;49.494;11.768;2022-12-18T05:27:56;30.73;;;8.60;;
69542;SDS011;56762;49.494;11.768;2022-12-18T05:30:24;27.70;;;8.43;;
69542;SDS011;56762;49.494;11.768;2022-12-18T05:32:53;37.53;;;10.75;;
69542;SDS011;56762;49.494;11.768;2022-12-18T05:35:21;29.03;;;10.03;;
69542;SDS011;56762;49.494;11.768;2022-12-18T05:37:50;25.77;;;8.35;;
69542;SDS011;56762;49.494;11.768;2022-12-18T05:40:21;27.25;;;8.93;;
69542;SDS011;56762;49.494;11.768;2022-12-18T05:42:49;29.30;;;7.88;;
69542;SDS011;56762;49.494;11.768;2022-12-18T05:45:17;24.85;;;8.48;;
69542;SDS011;56762;49.494;11.768;2022-12-18T05:48:10;22.57;;;8.53;;
69542;SDS011;56762;49.494;11.768;2022-12-18T05:50:41;26.17;;;8.50;;
69542;SDS011;56762;49.494;11.768;2022-12-18T05:53:10;31.15;;;9.35;;
69542;SDS011;56762;49.494;11.768;2022-12-18T05:55:41;28.45;;;9.38;;
69542;SDS011;56762;49.494;11.768;2022-12-18T05:58:11;28.65;;;11.30;;
69542;SDS011;56762;49.494;11.768;2022-12-18T06:00:41;21.90;;;7.50;;
69542;SDS011;56762;49.494;11.768;2022-12-18T06:03:11;26.85;;;7.07;;
69542;SDS011;56762;49.494;11.768;2022-12-18T06:05:41;25.90;;;7.78;;
69542;SDS011;56762;49.494;11.768;2022-12-18T06:08:10;23.45;;;7.80;;
69542;SDS011;56762;49.494;11.768;2022-12-18T06:10:38;25.17;;;7.60;;
69542;SDS011;56762;49.494;11.768;2022-12-18T06:13:08;26.37;;;8.10;;
69542;SDS011;56762;49.494;11.768;2022-12-18T06:15:36;29.70;;;7.45;;
69542;SDS011;56762;49.494;11.768;2022-12-18T06:18:05;23.05;;;8.40;;
69542;SDS011;56762;49.494;11.768;2022-12-18T06:23:02;25.73;;;8.15;;
69542;SDS011;56762;49.494;11.768;2022-12-18T06:25:30;27.60;;;8.70;;
69542;SDS011;56762;49.494;11.768;2022-12-18T06:27:59;23.85;;;8.32;;
69542;SDS011;56762;49.494;11.768;2022-12-18T06:30:28;28.48;;;8.73;;
69542;SDS011;56762;49.494;11.768;2022-12-18T06:32:56;34.92;;;15.50;;
69542;SDS011;56762;49.494;11.768;2022-12-18T06:35:24;30.02;;;10.10;;
69542;SDS011;56762;49.494;11.768;2022-12-18T06:37:52;26.90;;;9.17;;
69542;SDS011;56762;49.494;11.768;2022-12-18T06:40:20;30.27;;;9.18;;
69542;SDS011;56762;49.494;11.768;2022-12-18T06:42:48;20.95;;;7.15;;
69542;SDS011;56762;49.494;11.768;2022-12-18T06:45:16;27.77;;;10.50;;
69542;SDS011;56762;49.494;11.768;2022-12-18T06:47:46;22.02;;;7.78;;
69542;SDS011;56762;49.494;11.768;2022-12-18T06:50:14;26.27;;;8.30;;
69542;SDS011;56762;49.494;11.768;2022-12-18T06:52:42;24.92;;;7.43;;
69542;SDS011;56762;49.494;11.768;2022-12-18T06:55:10;24.77;;;8.40;;
69542;SDS011;56762;49.494;11.768;2022-12-18T06:57:39;27.90;;;8.60;;
69542;SDS011;56762;49.494;11.768;2022-12-18T07:00:08;28.45;;;9.25;;
69542;SDS011;56762;49.494;11.768;2022-12-18T07:02:36;26.50;;;7.67;;
69542;SDS011;56762;49.494;11.768;2022-12-18T07:05:07;31.58;;;9.27;;
69542;SDS011;56762;49.494;11.768;2022-12-18T07:07:36;29.55;;;9.85;;
69542;SDS011;56762;49.494;11.768;2022-12-18T07:10:05;32.05;;;11.55;;
69542;SDS011;56762;49.494;11.768;2022-12-18T07:12:34;25.60;;;8.63;;
69542;SDS011;56762;49.494;11.768;2022-12-18T07:15:02;32.63;;;11.17;;
69542;SDS011;56762;49.494;11.768;2022-12-18T07:17:31;31.10;;;9.85;;
69542;SDS011;56762;49.494;11.768;2022-12-18T07:19:59;26.52;;;9.57;;
69542;SDS011;56762;49.494;11.768;2022-12-18T07:22:29;30.88;;;10.40;;
69542;SDS011;56762;49.494;11.768;2022-12-18T07:24:57;32.88;;;11.57;;
69542;SDS011;56762;49.494;11.768;2022-12-18T07:27:25;26.70;;;9.83;;
69542;SDS011;56762;49.494;11.768;2022-12-18T07:29:53;32.65;;;11.57;;
69542;SDS011;56762;49.494;11.768;2022-12-18T07:32:21;31.98;;;12.10;;
69542;SDS011;56762;49.494;11.768;2022-12-18T07:34:49;28.10;;;9.70;;
69542;SDS011;56762;49.494;11.768;2022-12-18T07:37:17;31.20;;;10.88;;
69542;SDS011;56762;49.494;11.768;2022-12-18T07:39:46;26.67;;;9.37;;
69542;SDS011;56762;49.494;11.768;2022-12-18T07:42:16;24.70;;;9.15;;
69542;SDS011;56762;49.494;11.768;2022-12-18T07:44:58;24.30;;;8.13;;
69542;SDS011;56762;49.494;11.768;2022-12-18T07:47:26;22.17;;;7.97;;
69542;SDS011;56762;49.494;11.768;2022-12-18T07:49:56;24.17;;;9.23;;
69542;SDS011;56762;49.494;11.768;2022-12-18T07:52:24;25.53;;;9.53;;
69542;SDS011;56762;49.494;11.768;2022-12-18T07:54:54;29.77;;;11.40;;
69542;SDS011;56762;49.494;11.768;2022-12-18T07:57:23;24.67;;;8.80;;
69542;SDS011;56762;49.494;11.768;2022-12-18T08:00:11;22.40;;;7.63;;
69542;SDS011;56762;49.494;11.768;2022-12-18T08:02:39;24.23;;;8.25;;
69542;SDS011;56762;49.494;11.768;2022-12-18T08:05:08;22.83;;;8.43;;
69542;SDS011;56762;49.494;11.768;2022-12-18T08:07:37;24.48;;;8.82;;
69542;SDS011;56762;49.494;11.768;2022-12-18T08:10:07;28.38;;;9.50;;
69542;SDS011;56762;49.494;11.768;2022-12-18T08:12:36;25.60;;;7.65;;
69542;SDS011;56762;49.494;11.768;2022-12-18T08:15:04;23.95;;;7.57;;
69542;SDS011;56762;49.494;11.768;2022-12-18T08:17:33;22.67;;;7.50;;
69542;SDS011;56762;49.494;11.768;2022-12-18T08:20:01;25.75;;;8.65;;
69542;SDS011;56762;49.494;11.768;2022-12-18T08:22:33;21.42;;;7.40;;
69542;SDS011;56762;49.494;11.768;2022-12-18T08:25:01;20.67;;;7.78;;
69542;SDS011;56762;49.494;11.768;2022-12-18T08:27:32;29.73;;;9.88;;
69542;SDS011;56762;49.494;11.768;2022-12-18T08:30:00;24.90;;;8.97;;
69542;SDS011;56762;49.494;11.768;2022-12-18T08:32:29;35.55;;;12.75;;
69542;SDS011;56762;49.494;11.768;2022-12-18T08:34:59;24.17;;;7.80;;
69542;SDS011;56762;49.494;11.768;2022-12-18T08:37:27;30.90;;;10.38;;
69542;SDS011;56762;49.494;11.768;2022-12-18T08:39:55;28.30;;;8.45;;
69542;SDS011;56762;49.494;11.768;2022-12-18T08:42:23;21.73;;;7.60;;
69542;SDS011;56762;49.494;11.768;2022-12-18T08:45:15;21.67;;;8.02;;
69542;SDS011;56762;49.494;11.768;2022-12-18T08:47:47;18.83;;;7.13;;
69542;SDS011;56762;49.494;11.768;2022-12-18T08:50:16;21.30;;;8.05;;
69542;SDS011;56762;49.494;11.768;2022-12-18T08:52:46;23.45;;;7.68;;
69542;SDS011;56762;49.494;11.768;2022-12-18T08:55:17;22.10;;;7.87;;
69542;SDS011;56762;49.494;11.768;2022-12-18T08:57:47;26.33;;;9.93;;
69542;SDS011;56762;49.494;11.768;2022-12-18T09:00:20;22.77;;;8.48;;
69542;SDS011;56762;49.494;11.768;2022-12-18T09:02:52;20.52;;;7.65;;
69542;SDS011;56762;49.494;11.768;2022-12-18T09:05:20;22.15;;;8.80;;
69542;SDS011;56762;49.494;11.768;2022-12-18T09:07:48;23.43;;;9.50;;
69542;SDS011;56762;49.494;11.768;2022-12-18T09:10:16;20.02;;;8.63;;
69542;SDS011;56762;49.494;11.768;2022-12-18T09:12:47;25.25;;;10.13;;
69542;SDS011;56762;49.494;11.768;2022-12-18T09:15:16;20.02;;;7.95;;
69542;SDS011;56762;49.494;11.768;2022-12-18T09:17:53;18.80;;;7.97;;
69542;SDS011;56762;49.494;11.768;2022-12-18T09:20:21;19.40;;;7.50;;
69542;SDS011;56762;49.494;11.768;2022-12-18T09:22:54;19.58;;;8.35;;
69542;SDS011;56762;49.494;11.768;2022-12-18T09:25:22;23.25;;;10.13;;
69542;SDS011;56762;49.494;11.768;2022-12-18T09:27:54;21.95;;;8.13;;
69542;SDS011;56762;49.494;11.768;2022-12-18T09:30:28;28.52;;;14.85;;
69542;SDS011;56762;49.494;11.768;2022-12-18T09:33:15;21.50;;;8.23;;
69542;SDS011;56762;49.494;11.768;2022-12-18T09:35:43;18.08;;;6.75;;
69542;SDS011;56762;49.494;11.768;2022-12-18T09:38:14;26.25;;;11.68;;
69542;SDS011;56762;49.494;11.768;2022-12-18T09:40:49;22.85;;;9.82;;
69542;SDS011;56762;49.494;11.768;2022-12-18T09:43:21;20.83;;;7.70;;
69542;SDS011;56762;49.494;11.768;2022-12-18T09:45:58;22.10;;;8.07;;
69542;SDS011;56762;49.494;11.768;2022-12-18T09:48:35;27.42;;;11.90;;
69542;SDS011;56762;49.494;11.768;2022-12-18T09:51:10;20.15;;;8.50;;
69542;SDS011;56762;49.494;11.768;2022-12-18T09:53:48;20.67;;;7.82;;
69542;SDS011;56762;49.494;11.768;2022-12-18T09:56:25;26.73;;;9.25;;
69542;SDS011;56762;49.494;11.768;2022-12-18T09:59:01;18.93;;;6.67;;
69542;SDS011;56762;49.494;11.768;2022-12-18T10:01:31;19.98;;;6.80;;
69542;SDS011;56762;49.494;11.768;2022-12-18T10:04:11;18.45;;;6.65;;
69542;SDS011;56762;49.494;11.768;2022-12-18T10:06:51;15.25;;;5.95;;
69542;SDS011;56762;49.494;11.768;2022-12-18T10:09:38;16.92;;;5.97;;
69542;SDS011;56762;49.494;11.768;2022-12-18T10:12:20;17.87;;;6.40;;
69542;SDS011;56762;49.494;11.768;2022-12-18T10:14:57;17.83;;;7.00;;
69542;SDS011;56762;49.494;11.768;2022-12-18T10:17:32;14.57;;;6.68;;
69542;SDS011;56762;49.494;11.768;2022-12-18T10:20:10;20.10;;;6.60;;
69542;SDS011;56762;49.494;11.768;2022-12-18T10:22:46;17.38;;;7.07;;
69542;SDS011;56762;49.494;11.768;2022-12-18T10:25:22;19.70;;;8.10;;
69542;SDS011;56762;49.494;11.768;2022-12-18T10:27:58;24.10;;;9.73;;
69542;SDS011;56762;49.494;11.768;2022-12-18T10:30:34;17.17;;;7.22;;
69542;SDS011;56762;49.494;11.768;2022-12-18T10:33:03;17.48;;;6.20;;
69542;SDS011;56762;49.494;11.768;2022-12-18T10:35:32;15.55;;;5.68;;
69542;SDS011;56762;49.494;11.768;2022-12-18T10:38:05;19.37;;;7.10;;
69542;SDS011;56762;49.494;11.768;2022-12-18T10:40:47;21.75;;;8.35;;
69542;SDS011;56762;49.494;11.768;2022-12-18T10:43:20;22.13;;;7.78;;
69542;SDS011;56762;49.494;11.768;2022-12-18T10:46:07;18.20;;;7.10;;
69542;SDS011;56762;49.494;11.768;2022-12-18T10:48:50;21.27;;;8.02;;
69542;SDS011;56762;49.494;11.768;2022-12-18T10:51:33;18.60;;;7.30;;
69542;SDS011;56762;49.494;11.768;2022-12-18T10:54:05;17.48;;;7.05;;
69542;SDS011;56762;49.494;11.768;2022-12-18T10:56:44;19.95;;;7.45;;
69542;SDS011;56762;49.494;11.768;2022-12-18T10:59:13;18.38;;;6.63;;
69542;SDS011;56762;49.494;11.768;2022-12-18T11:01:51;19.23;;;6.90;;
69542;SDS011;56762;49.494;11.768;2022-12-18T11:04:23;16.53;;;6.43;;
69542;SDS011;56762;49.494;11.768;2022-12-18T11:06:55;18.67;;;8.05;;
69542;SDS011;56762;49.494;11.768;2022-12-18T11:09:26;21.67;;;8.45;;
69542;SDS011;56762;49.494;11.768;2022-12-18T11:11:55;18.30;;;7.63;;
69542;SDS011;56762;49.494;11.768;2022-12-18T11:14:26;20.70;;;9.25;;
69542;SDS011;56762;49.494;11.768;2022-12-18T11:16:55;20.53;;;8.87;;
69542;SDS011;56762;49.494;11.768;2022-12-18T11:20:37;24.00;;;8.75;;
69542;SDS011;56762;49.494;11.768;2022-12-18T11:23:11;19.08;;;7.70;;
69542;SDS011;56762;49.494;11.768;2022-12-18T11:25:40;21.05;;;8.18;;
69542;SDS011;56762;49.494;11.768;2022-12-18T11:28:33;22.60;;;8.48;;
69542;SDS011;56762;49.494;11.768;2022-12-18T11:31:18;23.37;;;8.10;;
69542;SDS011;56762;49.494;11.768;2022-12-18T11:33:53;19.63;;;7.85;;
69542;SDS011;56762;49.494;11.768;2022-12-18T11:36:45;20.60;;;8.02;;
69542;SDS011;56762;49.494;11.768;2022-12-18T11:39:17;24.92;;;8.93;;
69542;SDS011;56762;49.494;11.768;2022-12-18T11:41:49;24.92;;;9.82;;
69542;SDS011;56762;49.494;11.768;2022-12-18T11:44:40;26.10;;;8.97;;
69542;SDS011;56762;49.494;11.768;2022-12-18T11:47:19;22.48;;;9.80;;
69542;SDS011;56762;49.494;11.768;2022-12-18T11:49:52;23.98;;;9.60;;
69542;SDS011;56762;49.494;11.768;2022-12-18T11:52:23;25.48;;;8.75;;
69542;SDS011;56762;49.494;11.768;2022-12-18T11:54:56;22.63;;;10.63;;
69542;SDS011;56762;49.494;11.768;2022-12-18T11:57:31;23.57;;;10.27;;
69542;SDS011;56762;49.494;11.768;2022-12-18T12:00:11;26.30;;;14.68;;
69542;SDS011;56762;49.494;11.768;2022-12-18T12:02:48;23.48;;;10.45;;
69542;SDS011;56762;49.494;11.768;2022-12-18T12:05:33;26.40;;;11.05;;
69542;SDS011;56762;49.494;11.768;2022-12-18T12:08:09;23.85;;;8.57;;
69542;SDS011;56762;49.494;11.768;2022-12-18T12:10:49;22.63;;;8.93;;
69542;SDS011;56762;49.494;11.768;2022-12-18T12:13:26;21.83;;;7.80;;
69542;SDS011;56762;49.494;11.768;2022-12-18T12:16:10;19.85;;;7.55;;
69542;SDS011;56762;49.494;11.768;2022-12-18T12:18:50;23.10;;;8.27;;
69542;SDS011;56762;49.494;11.768;2022-12-18T12:21:27;19.98;;;7.63;;
69542;SDS011;56762;49.494;11.768;2022-12-18T12:24:01;26.67;;;9.13;;
69542;SDS011;56762;49.494;11.768;2022-12-18T12:26:38;21.95;;;8.10;;
69542;SDS011;56762;49.494;11.768;2022-12-18T12:29:20;24.48;;;8.48;;
69542;SDS011;56762;49.494;11.768;2022-12-18T12:32:01;22.80;;;8.82;;
69542;SDS011;56762;49.494;11.768;2022-12-18T12:34:37;21.20;;;8.77;;
69542;SDS011;56762;49.494;11.768;2022-12-18T12:37:24;23.63;;;9.00;;
69542;SDS011;56762;49.494;11.768;2022-12-18T12:40:03;23.20;;;8.23;;
69542;SDS011;56762;49.494;11.768;2022-12-18T12:42:54;24.00;;;8.55;;
69542;SDS011;56762;49.494;11.768;2022-12-18T12:45:44;24.10;;;9.20;;
69542;SDS011;56762;49.494;11.768;2022-12-18T12:48:16;21.58;;;7.88;;
69542;SDS011;56762;49.494;11.768;2022-12-18T12:50:48;24.77;;;10.27;;
69542;SDS011;56762;49.494;11.768;2022-12-18T12:53:21;22.38;;;8.50;;
69542;SDS011;56762;49.494;11.768;2022-12-18T12:55:55;24.73;;;8.88;;
69542;SDS011;56762;49.494;11.768;2022-12-18T12:58:28;27.42;;;8.88;;
69542;SDS011;56762;49.494;11.768;2022-12-18T13:01:07;22.65;;;9.05;;
69542;SDS011;56762;49.494;11.768;2022-12-18T13:03:58;29.63;;;10.00;;
69542;SDS011;56762;49.494;11.768;2022-12-18T13:06:45;33.00;;;10.88;;
69542;SDS011;56762;49.494;11.768;2022-12-18T13:09:34;25.02;;;9.50;;
69542;SDS011;56762;49.494;11.768;2022-12-18T13:13:00;24.95;;;9.20;;
69542;SDS011;56762;49.494;11.768;2022-12-18T13:15:38;24.92;;;10.70;;
69542;SDS011;56762;49.494;11.768;2022-12-18T13:18:12;28.50;;;8.80;;
69542;SDS011;56762;49.494;11.768;2022-12-18T13:20:49;25.10;;;10.43;;
69542;SDS011;56762;49.494;11.768;2022-12-18T13:23:38;27.25;;;13.68;;
69542;SDS011;56762;49.494;11.768;2022-12-18T13:29:02;27.95;;;11.00;;
69542;SDS011;56762;49.494;11.768;2022-12-18T13:31:58;26.03;;;9.60;;
69542;SDS011;56762;49.494;11.768;2022-12-18T13:34:29;19.42;;;8.52;;
69542;SDS011;56762;49.494;11.768;2022-12-18T13:43:30;23.45;;;9.00;;
69542;SDS011;56762;49.494;11.768;2022-12-18T13:46:05;26.00;;;9.00;;
69542;SDS011;56762;49.494;11.768;2022-12-18T13:48:52;25.05;;;9.07;;
69542;SDS011;56762;49.494;11.768;2022-12-18T13:51:32;22.63;;;9.05;;
69542;SDS011;56762;49.494;11.768;2022-12-18T13:54:02;18.98;;;8.32;;
69542;SDS011;56762;49.494;11.768;2022-12-18T13:56:45;23.27;;;8.23;;
69542;SDS011;56762;49.494;11.768;2022-12-18T13:59:18;23.27;;;8.90;;
69542;SDS011;56762;49.494;11.768;2022-12-18T14:01:51;19.73;;;8.48;;
69542;SDS011;56762;49.494;11.768;2022-12-18T14:04:34;20.35;;;7.78;;
69542;SDS011;56762;49.494;11.768;2022-12-18T14:07:10;31.77;;;16.25;;
69542;SDS011;56762;49.494;11.768;2022-12-18T14:09:49;20.50;;;9.90;;
69542;SDS011;56762;49.494;11.768;2022-12-18T14:12:27;24.90;;;10.07;;
69542;SDS011;56762;49.494;11.768;2022-12-18T14:15:19;24.25;;;8.85;;
69542;SDS011;56762;49.494;11.768;2022-12-18T14:17:52;25.23;;;10.07;;
69542;SDS011;56762;49.494;11.768;2022-12-18T14:20:22;23.42;;;10.30;;
69542;SDS011;56762;49.494;11.768;2022-12-18T14:22:55;22.90;;;9.73;;
69542;SDS011;56762;49.494;11.768;2022-12-18T14:25:25;26.10;;;9.60;;
69542;SDS011;56762;49.494;11.768;2022-12-18T14:28:02;30.65;;;16.63;;
69542;SDS011;56762;49.494;11.768;2022-12-18T14:30:37;22.35;;;11.93;;
69542;SDS011;56762;49.494;11.768;2022-12-18T14:33:10;31.15;;;14.15;;
69542;SDS011;56762;49.494;11.768;2022-12-18T14:35:41;33.03;;;12.75;;
69542;SDS011;56762;49.494;11.768;2022-12-18T14:38:14;35.17;;;13.00;;
69542;SDS011;56762;49.494;11.768;2022-12-18T14:40:51;31.45;;;16.70;;
69542;SDS011;56762;49.494;11.768;2022-12-18T14:43:19;37.00;;;19.80;;
69542;SDS011;56762;49.494;11.768;2022-12-18T14:45:49;35.50;;;17.17;;
69542;SDS011;56762;49.494;11.768;2022-12-18T14:48:18;26.35;;;11.68;;
69542;SDS011;56762;49.494;11.768;2022-12-18T14:50:54;35.90;;;18.93;;
69542;SDS011;56762;49.494;11.768;2022-12-18T14:53:28;29.42;;;15.80;;
69542;SDS011;56762;49.494;11.768;2022-12-18T14:56:14;26.27;;;9.98;;
69542;SDS011;56762;49.494;11.768;2022-12-18T14:58:48;29.58;;;13.60;;
69542;SDS011;56762;49.494;11.768;2022-12-18T15:01:23;25.88;;;11.40;;
69542;SDS011;56762;49.494;11.768;2022-12-18T15:03:54;27.80;;;9.40;;